• Join FlightAware (Why Join?)
  • Login
  • US Flag GB Flag 
22:59 EDT


 

Airport Tracker/Info


-or-


 

Live Flight TrackerFlight Track Log ✈ UAL1208 ✈ 10-May-2013 ✈ KSFO - KBWI

Flight Track Log - Related Links

Times and Time Zones

All times are in EDT time to prevent confusion due to time zone crossing. See the UAL1208 flight status page for this flight to view local times or setup timezone preferences in your user account.

Time Position Orientation Groundspeed Altitude Reporting Facility
EDT Latitude Longitude Course Direction KTS MPH feet Rate Location/Type
19:33 37.6333 -122.4000 28° Northeast 164 189 1,000  Level Northern Cal TRACON
19:34 37.6833 -122.3667 28° Northeast 244 281 2,700 1,920 Climbing Northern Cal TRACON
19:35 37.7167 -122.3000 58° Northeast 276 318 4,900 2,460 Climbing Northern Cal TRACON
19:36 37.7667 -122.2000 58° Northeast 278 320 7,900 2,520 Climbing Northern Cal TRACON
19:37 37.7844 -122.1075 76° East 282 325 10,200 1,920 Climbing Oakland Center
19:38 37.8125 -122.0025 71° East 311 358 11,900 1,800 Climbing Oakland Center
19:39 37.8419 -121.8928 71° East 330 380 14,000 2,040 Climbing Oakland Center
19:40 37.8725 -121.7756 72° East 345 397 16,100 1,860 Climbing Oakland Center
19:41 37.9050 -121.6569 71° East 357 411 17,900 1,800 Climbing Oakland Center
19:42 37.9367 -121.5331 72° East 369 425 19,800 1,800 Climbing Oakland Center
19:43 37.9719 -121.3986 72° East 378 435 21,700 1,740 Climbing Oakland Center
19:44 38.0050 -121.2697 72° East 385 443 23,400 1,560 Climbing Oakland Center
19:45 38.0394 -121.1383 72° East 393 452 25,000 1,500 Climbing Oakland Center
19:46 38.0725 -120.9775 75° East 397 457 26,500 1,140 Climbing Oakland Center
19:47 38.0983 -120.8367 77° East 409 471 27,400 900 Climbing Oakland Center
19:48 38.1247 -120.6922 77° East 420 483 28,400 1,020 Climbing Oakland Center
19:49 38.1511 -120.5464 77° East 425 489 29,500 900 Climbing Oakland Center
19:50 38.1772 -120.3972 77° East 433 498 30,300 720 Climbing Oakland Center
19:51 38.2044 -120.2453 77° East 443 510 31,000 840 Climbing Oakland Center
19:52 38.2331 -120.0925 77° East 445 512 32,100 1,140 Climbing Oakland Center
19:54 38.2731 -119.8461 78° East 433 498 34,000 900 Climbing Salt Lake Center
19:54 38.2889 -119.7661 76° East 427 491 34,000  Level Oakland Center
19:55 38.3142 -119.6189 78° East 428 493 34,000  Level Oakland Center
19:56 38.3397 -119.4683 78° East 435 501 34,000  Level Oakland Center
19:57 38.3656 -119.3097 78° East 442 509 34,000  Level Oakland Center
19:58 38.3911 -119.1572 78° East 443 510 34,000  Level Oakland Center
19:59 38.4178 -119.0008 78° East 452 520 34,000 -60 Level Oakland Center
20:00 38.4428 -118.8458 78° East 450 518 33,900 -540 Descending Oakland Center
20:01 38.4683 -118.6906 78° East 449 517 33,000 -480 Descending Oakland Center
20:02 38.4994 -118.5047 78° East 449 517 33,000  Level Oakland Center
20:03 38.5244 -118.3489 78° East 451 519 33,000  Level Oakland Center
20:04 38.5489 -118.1944 79° East 449 517 33,000  Level Oakland Center
20:05 38.5725 -118.0444 79° East 450 518 33,000  Level Oakland Center
20:06 38.5969 -117.8881 79° East 448 516 33,000  Level Oakland Center
20:08 38.6211 -117.7308 79° East 449 517 33,000  Level Oakland Center
20:08 38.6356 -117.6369 79° East 449 517 33,000  Level Salt Lake Center
20:09 38.6456 -117.5742 78° East 448 516 33,000  Level Oakland Center
20:10 38.6689 -117.4169 79° East 447 514 33,000  Level Oakland Center
20:10 38.6822 -117.3233 80° East 447 514 33,000  Level Salt Lake Center
20:11 38.7056 -117.1672 79° East 445 512 33,000  Level Salt Lake Center
20:12 38.7200 -117.0747 79° East 441 507 33,000  Level Oakland Center
20:13 38.7425 -116.9203 79° East 440 506 33,000  Level Oakland Center
20:13 38.7561 -116.8272 79° East 440 506 33,000  Level Salt Lake Center
20:14 38.7775 -116.6742 80° East 436 502 33,000  Level Salt Lake Center
20:15 38.7872 -116.6128 78° East 436 502 33,000  Level Oakland Center
20:16 38.8086 -116.4592 80° East 437 503 33,000  Level Oakland Center
20:16 38.8211 -116.3683 80° East 434 499 33,000  Level Salt Lake Center
20:17 38.8431 -116.2147 80° East 435 501 33,000  Level Salt Lake Center
20:18 38.8642 -116.0622 80° East 435 501 33,000  Level Salt Lake Center
20:19 38.8864 -115.9081 79° East 437 503 33,000  Level Salt Lake Center
20:20 38.9064 -115.7531 81° East 439 505 33,000  Level Salt Lake Center
20:21 38.9325 -115.5664 80° East 442 509 33,000  Level Salt Lake Center
20:22 38.9536 -115.4106 80° East 443 510 33,000  Level Salt Lake Center
20:23 39.0100 -115.2714 62° Northeast 436 502 33,000  Level Salt Lake Center
20:25 39.0689 -115.1392 60° Northeast 429 494 33,000  Level Salt Lake Center
20:26 39.1281 -115.0053 60° Northeast 430 495 33,000  Level Salt Lake Center
20:27 39.1844 -114.8536 64° Northeast 427 491 33,000  Level Salt Lake Center
20:28 39.2194 -114.7144 72° East 429 494 33,000  Level Salt Lake Center
20:29 39.2567 -114.5744 71° East 431 496 33,000  Level Salt Lake Center
20:30 39.3006 -114.4097 71° East 435 501 33,000  Level Salt Lake Center
20:31 39.3456 -114.2503 70° East 443 510 33,000  Level Salt Lake Center
20:32 39.3853 -114.1022 71° East 438 504 33,000  Level Salt Lake Center
20:33 39.4256 -113.9531 71° East 438 504 33,000  Level Salt Lake Center
20:34 39.4661 -113.8025 71° East 441 507 33,000  Level Salt Lake Center
20:35 39.5072 -113.6525 70° East 442 509 33,000  Level Salt Lake Center
20:36 39.5475 -113.5014 71° East 444 511 33,000  Level Salt Lake Center
20:37 39.5878 -113.3494 71° East 445 512 33,000  Level Salt Lake Center
20:38 39.6292 -113.1997 70° East 442 509 33,000  Level Salt Lake Center
20:39 39.6783 -113.0189 70° East 442 509 33,000  Level Salt Lake Center
20:40 39.7194 -112.8678 70° East 444 511 33,000  Level Salt Lake Center
20:41 39.7614 -112.7122 71° East 445 512 33,000  Level Salt Lake Center
20:42 39.8036 -112.5633 70° East 442 509 33,100 480 Climbing Salt Lake Center
20:43 39.8333 -112.4092 76° East 443 510 34,100 900 Climbing Salt Lake Center
20:44 39.8608 -112.2556 77° East 438 504 35,000 420 Climbing Salt Lake Center
20:45 39.8878 -112.1047 77° East 431 496 35,000  Level Salt Lake Center
20:46 39.9133 -111.9558 77° East 427 491 35,000  Level Salt Lake Center
20:47 39.9444 -111.7761 77° East 427 491 35,000  Level Salt Lake Center
20:48 39.9697 -111.6267 78° East 425 489 35,000  Level Salt Lake Center
20:49 39.9972 -111.4672 77° East 424 488 35,000  Level Salt Lake Center
20:50 40.0217 -111.3214 78° East 429 494 35,000  Level Salt Lake Center
20:51 40.0458 -111.1739 78° East 432 497 35,000  Level Salt Lake Center
20:52 40.0714 -111.0217 78° East 432 497 35,000  Level Salt Lake Center
20:53 40.0978 -110.8561 78° East 433 498 35,000  Level Salt Lake Center
20:54 40.1258 -110.6847 78° East 432 497 35,000  Level Salt Lake Center
20:55 40.1489 -110.5369 78° East 433 498 35,000  Level Salt Lake Center
20:56 40.1725 -110.3914 78° East 431 496 35,000  Level Salt Lake Center
20:57 40.1997 -110.2208 78° East 429 494 35,000  Level Salt Lake Center
20:58 40.2225 -110.0756 78° East 427 491 35,000  Level Salt Lake Center
20:59 40.2483 -109.9075 79° East 423 487 35,000  Level Salt Lake Center
21:00 40.2703 -109.7628 79° East 423 487 35,000  Level Salt Lake Center
21:01 40.2931 -109.6178 78° East 424 488 35,000  Level Salt Lake Center
21:02 40.3178 -109.4494 79° East 422 486 35,000  Level Salt Lake Center
21:04 40.3392 -109.3061 79° East 420 483 35,000  Level Salt Lake Center
21:05 40.3639 -109.1406 79° East 416 479 35,000  Level Salt Lake Center
21:06 40.3844 -108.9961 79° East 419 482 35,000  Level Salt Lake Center
21:07 40.4061 -108.8506 79° East 418 481 35,000  Level Denver Center
21:08 40.4303 -108.6811 79° East 421 484 35,000  Level Denver Center
21:09 40.4475 -108.5606 79° East 421 484 35,000  Level Denver Center
21:10 40.4742 -108.3681 80° East 420 483 35,000  Level Denver Center
21:11 40.4933 -108.2350 79° East 423 487 35,000  Level Salt Lake Center
21:12 40.5144 -108.0775 80° East 420 483 35,000  Level Denver Center
21:13 40.5369 -107.9089 80° East 420 483 35,000  Level Denver Center
21:14 40.5544 -107.7883 79° East 420 483 35,000  Level Denver Center
21:15 40.5794 -107.5942 80° East 421 484 35,000  Level Denver Center
21:16 40.5989 -107.4481 80° East 422 486 35,000  Level Denver Center
21:17 40.6211 -107.2792 80° East 420 483 35,000  Level Denver Center
21:18 40.6411 -107.1369 79° East 422 486 35,000  Level Denver Center
21:19 40.6592 -106.9836 81° East 423 487 35,000  Level Denver Center
21:20 40.6794 -106.8297 80° East 424 488 35,000  Level Denver Center
21:21 40.6986 -106.6772 81° East 421 484 35,000  Level Denver Center
21:22 40.7200 -106.5003 81° East 422 486 35,000  Level Denver Center
21:23 40.7369 -106.3525 81° East 424 488 35,000  Level Denver Center
21:24 40.7553 -106.2008 81° East 419 482 35,000  Level Denver Center
21:25 40.7806 -106.0033 80° East 422 486 35,000  Level Denver Center
21:26 40.7942 -105.8808 82° East 421 484 35,000  Level Denver Center
21:27 40.8158 -105.6925 81° East 424 488 35,000  Level Denver Center
21:28 40.8350 -105.5219 81° East 422 486 35,000  Level Denver Center
21:29 40.8483 -105.4003 82° East 422 486 35,000  Level Denver Center
21:30 40.8708 -105.2044 81° East 423 487 35,000  Level Denver Center
21:31 40.8875 -105.0592 81° East 421 484 35,000  Level Denver Center
21:33 40.9028 -104.9117 82° East 422 486 35,000  Level Denver Center
21:34 40.9225 -104.7406 81° East 425 489 35,000  Level Denver Center
21:35 40.9372 -104.5956 82° East 419 482 35,000  Level Denver Center
21:36 40.9550 -104.4208 82° East 426 490 35,000  Level Denver Center
21:37 40.9717 -104.2708 82° East 433 498 35,000  Level Denver Center
21:38 40.9892 -104.0961 82° East 432 497 35,000  Level Denver Center
21:39 41.0047 -103.9439 82° East 436 502 35,000  Level Denver Center
21:40 41.0214 -103.7681 83° East 434 499 35,000  Level Denver Center
21:41 41.0350 -103.6203 83° East 427 491 35,000  Level Denver Center
21:42 41.0531 -103.4411 82° East 436 502 35,000  Level Denver Center
21:43 41.0658 -103.2942 83° East 425 489 35,000  Level Denver Center
21:44 41.0828 -103.1175 83° East 432 497 35,000  Level Denver Center
21:45 41.0983 -102.9592 83° East 432 497 35,000  Level Denver Center
21:46 41.1100 -102.8067 84° East 434 499 35,000  Level Denver Center
21:47 41.1228 -102.6272 85° East 438 504 35,000  Level Denver Center
21:48 41.1361 -102.4733 83° East 438 504 35,000  Level Denver Center
21:49 41.1492 -102.2939 84° East 437 503 35,000  Level Denver Center
21:50 41.1608 -102.1397 84° East 438 504 35,000  Level Denver Center
21:51 41.1750 -101.9594 84° East 440 506 35,000  Level Denver Center
21:52 41.1856 -101.8069 85° East 436 502 35,000  Level Denver Center
21:53 41.1961 -101.6531 85° East 437 503 35,000  Level Denver Center
21:54 41.2081 -101.4725 85° East 439 505 35,000  Level Denver Center
21:55 41.2225 -101.2658 85° East 439 505 35,000  Level Denver Center
21:56 41.2325 -101.1094 85° East 442 509 35,000  Level Denver Center
21:57 41.2431 -100.9542 85° East 440 506 35,000  Level Denver Center
21:59 41.2544 -100.7714 85° East 441 507 35,000  Level Denver Center
22:00 41.2631 -100.6153 86° East 440 506 35,000  Level Denver Center
22:01 41.2747 -100.4328 85° East 440 506 35,000  Level Denver Center
22:02 41.2833 -100.2772 86° East 439 505 35,000  Level Denver Center
22:03 41.2917 -100.1200 86° East 442 509 35,000  Level Denver Center
22:04 41.3022 -99.9386 86° East 441 507 35,000  Level Denver Center
22:05 41.3100 -99.7825 86° East 441 507 35,000  Level Denver Center
22:06 41.3200 -99.6003 86° East 442 509 35,000  Level Denver Center
22:07 41.3275 -99.4439 86° East 442 509 35,000  Level Denver Center
22:08 41.3336 -99.3142 86° East 442 509 35,000  Level Denver Center
22:09 41.3431 -99.1158 86° East 445 512 35,000  Level Denver Center
22:10 41.3511 -98.9478 86° East 448 516 35,000  Level Denver Center
22:11 41.3569 -98.7817 87° East 446 513 35,000  Level Minneapolis Center
22:12 41.3642 -98.6153 87° East 448 516 35,000  Level Minneapolis Center
22:13 41.3719 -98.4442 86° East 450 518 35,000  Level Minneapolis Center
22:14 41.3789 -98.2761 87° East 451 519 35,000  Level Minneapolis Center
22:15 41.3844 -98.0831 88° East 448 516 35,000  Level Minneapolis Center
22:16 41.3897 -97.9194 87° East 443 510 35,000  Level Minneapolis Center
22:17 41.3942 -97.7536 88° East 446 513 35,000  Level Minneapolis Center
22:18 41.4000 -97.5858 87° East 451 519 35,000  Level Minneapolis Center
22:19 41.4039 -97.4194 88° East 450 518 35,000  Level Minneapolis Center
22:20 41.4083 -97.2517 88° East 452 520 35,000  Level Minneapolis Center
22:21 41.4119 -97.0514 89° East 451 519 35,000  Level Minneapolis Center
22:22 41.4158 -96.8831 88° East 453 521 35,000  Level Minneapolis Center
22:23 41.4189 -96.7142 89° East 455 524 35,000  Level Minneapolis Center
22:24 41.4214 -96.5808 89° East 453 521 35,000  Level Minneapolis Center
22:25 41.4250 -96.3792 89° East 452 520 35,000  Level Minneapolis Center
22:26 41.4272 -96.2000 89° East 462 532 35,000  Level Minneapolis Center
22:27 41.4289 -96.0328 89° East 454 522 35,000  Level Minneapolis Center
22:28 41.4317 -95.8325 89° East 451 519 35,000  Level Minneapolis Center
22:29 41.4342 -95.6625 89° East 457 526 35,000  Level Minneapolis Center
22:30 41.4353 -95.5217 89° East 456 525 35,000  Level Minneapolis Center
22:31 41.4367 -95.3181 89° East 458 527 35,000  Level Minneapolis Center
22:33 41.4386 -95.1469 89° East 460 529 35,000  Level Minneapolis Center
22:34 41.4400 -94.9425 89° East 462 532 35,000  Level Minneapolis Center
22:35 41.4389 -94.7700 90° East 464 534 35,000  Level Minneapolis Center
22:36 41.4403 -94.6003 89° East 458 527 35,000  Level Minneapolis Center
22:37 41.4400 -94.4294 90° East 458 527 35,000  Level Minneapolis Center
22:38 41.4403 -94.2589 90° East 461 531 35,000  Level Minneapolis Center
22:39 41.4375 -94.0883 91° East 457 526 35,000  Level Minneapolis Center
22:40 41.4372 -93.9183 90° East 459 528 35,000  Level Minneapolis Center
22:41 41.4364 -93.7494 90° East 459 528 35,000  Level Minneapolis Center
22:42 41.4372 -93.5794 90° East 460 529 35,000  Level Minneapolis Center
22:43 41.4481 -93.4072 85° East 461 531 35,000  Level Minneapolis Center
22:44 41.4339 -93.2047 95° East 461 531 35,000  Level Minneapolis Center
22:45 41.4222 -93.0353 95° East 462 532 35,000  Level Minneapolis Center
22:46 41.4086 -92.8631 96° East 465 535 35,000  Level Minneapolis Center
22:47 41.3964 -92.6925 95° East 466 536 35,000  Level Minneapolis Center
22:48 41.3847 -92.5550 96° East 466 536 35,000  Level Chicago Center
22:49 41.3719 -92.3842 96° East 468 539 35,000  Level Chicago Center
22:50 41.3586 -92.2197 96° East 462 532 35,000  Level Chicago Center
22:51 41.3447 -92.0492 96° East 467 537 35,000  Level Chicago Center
22:52 41.3306 -91.8808 96° East 465 535 35,000  Level Chicago Center
22:53 41.3119 -91.6747 97° East 471 542 35,000  Level Chicago Center
22:54 41.2967 -91.5014 97° East 476 548 35,000  Level Chicago Center
22:55 41.2825 -91.3286 96° East 476 548 35,000  Level Chicago Center
22:56 41.2658 -91.1558 97° East 478 550 35,000  Level Chicago Center
22:57 41.2492 -90.9789 97° East 481 554 35,000  Level Chicago Center
22:58 41.2339 -90.8008 96° East 483 556 35,000  Level Chicago Center
22:59 41.2164 -90.6236 97° East 485 558 35,000  Level Chicago Center
23:00 41.1989 -90.4453 97° East 485 558 35,000  Level Chicago Center
23:01 41.1814 -90.2656 97° East 489 563 35,000  Level Chicago Center
23:02 41.1631 -90.0844 98° East 491 565 35,000  Level Chicago Center
23:03 41.1406 -89.8669 98° East 492 566 35,000  Level Chicago Center
23:04 41.1217 -89.6856 98° East 492 566 35,000  Level Chicago Center
23:05 41.1031 -89.5061 98° East 488 562 35,000  Level Chicago Center
23:06 41.0842 -89.3269 98° East 488 562 35,000  Level Chicago Center
23:07 41.0661 -89.1656 98° East 486 559 35,000  Level Chicago Center
23:08 41.0478 -88.9900 98° East 486 559 35,000  Level Chicago Center
23:09 41.0275 -88.8158 99° East 484 557 35,000  Level Chicago Center
23:10 41.0042 -88.6089 98° East 480 552 35,000  Level Chicago Center
23:11 40.9850 -88.4331 98° East 486 559 35,000  Level Chicago Center
23:12 40.9650 -88.2586 99° East 486 559 35,000  Level Chicago Center
23:13 40.9453 -88.0844 98° East 487 560 35,000  Level Chicago Center
23:14 40.9233 -87.9094 99° East 490 564 35,000  Level Chicago Center
23:15 40.9017 -87.7333 99° East 490 564 35,000  Level Chicago Center
23:16 40.8753 -87.5208 99° East 494 568 35,000  Level Chicago Center
23:17 40.8528 -87.3431 99° East 492 566 35,000  Level Chicago Center
23:18 40.8317 -87.1658 99° East 492 566 35,000  Level Chicago Center
23:19 40.8086 -86.9869 100° East 496 571 35,000  Level Chicago Center
23:20 40.7858 -86.8106 100° East 492 566 35,000  Level Chicago Center
23:21 40.7611 -86.6272 100° East 490 564 35,000  Level Chicago Center
23:22 40.7378 -86.4514 100° East 490 564 35,000  Level Chicago Center
23:23 40.7139 -86.2750 100° East 491 565 35,000  Level Chicago Center
23:24 40.6900 -86.0997 100° East 490 564 35,000  Level Chicago Center
23:25 40.6664 -85.9286 100° East 488 562 35,000  Level Chicago Center
23:26 40.6419 -85.7514 100° East 489 563 35,000  Level Chicago Center
23:27 40.6236 -85.5736 98° East 490 564 35,000  Level Chicago Center
23:28 40.6003 -85.3594 98° East 492 566 35,000  Level Chicago Center
23:30 40.5817 -85.1811 98° East 493 567 35,000  Level Chicago Center
23:30 40.5644 -85.0358 99° East 493 567 35,000 -60 Level Indianapolis Center
23:31 40.5456 -84.8697 98° East 495 570 34,900 -60 Descending Indianapolis Center
23:32 40.5244 -84.6886 99° East 495 570 34,900  Level Indianapolis Center
23:33 40.5042 -84.5056 98° East 501 577 35,000  Climbing Indianapolis Center
23:34 40.4822 -84.3206 99° East 507 583 35,000  Level Indianapolis Center
23:35 40.4606 -84.1358 99° East 507 583 35,000 -60 Level Indianapolis Center
23:36 40.4386 -83.9514 99° East 505 581 34,900  Descending Indianapolis Center
23:37 40.4161 -83.7692 99° East 502 578 35,000  Climbing Indianapolis Center
23:38 40.3942 -83.5869 99° East 500 575 35,000  Level Indianapolis Center
23:39 40.3711 -83.4053 99° East 499 574 35,000  Level Indianapolis Center
23:40 40.3483 -83.2214 99° East 503 579 35,000  Level Indianapolis Center
23:41 40.3247 -83.0378 100° East 503 579 35,000  Level Indianapolis Center
23:43 40.3006 -82.8550 100° East 503 579 35,000  Level Indianapolis Center
23:44 40.2761 -82.6594 99° East 503 579 35,000  Level Indianapolis Center
23:45 40.2522 -82.4789 100° East 501 577 35,000  Level Indianapolis Center
23:46 40.2283 -82.3078 100° East 505 581 35,000 -60 Level Indianapolis Center
23:47 40.2036 -82.1258 100° East 504 580 34,900  Descending Indianapolis Center
23:48 40.1783 -81.9419 100° East 509 586 35,000  Climbing Indianapolis Center
23:49 40.1517 -81.7514 100° East 507 583 35,000  Level Indianapolis Center
23:49 40.1314 -81.5986 100° East 503 579 35,000  Level Cleveland Center
23:50 40.1058 -81.4164 100° East 508 585 35,000  Level Cleveland Center
23:51 40.0819 -81.2369 100° East 508 585 35,000  Level Cleveland Center
23:52 40.0558 -81.0631 101° East 508 585 35,000  Level Cleveland Center
23:53 40.0292 -80.8842 101° East 508 585 35,000  Level Cleveland Center
23:54 39.9961 -80.7078 104° East 502 578 35,000  Level Cleveland Center
23:55 39.9631 -80.5317 104° East 502 578 35,000  Level Cleveland Center
23:56 39.9272 -80.3611 105° East 496 571 35,000 -120 Level Cleveland Center
23:59 39.8453 -79.9508 104° East 481 554 34,700 -420 Descending Washington Center
00:00 39.8097 -79.7811 105° East 481 554 33,700 -1,320 Descending Washington Center
00:01 39.7736 -79.6169 106° East 481 554 32,100 -1,920 Descending Washington Center
00:02 39.7394 -79.4531 105° East 481 554 29,900 -2,400 Descending Washington Center
00:03 39.7031 -79.2786 105° East 469 540 27,400 -2,280 Descending Washington Center
00:04 39.6725 -79.1233 104° East 456 525 25,400 -1,200 Descending Washington Center
00:05 39.6392 -78.9789 107° East 435 501 25,000 -1,680 Descending Washington Center
00:06 39.6092 -78.8481 107° East 423 487 22,100 -2,040 Descending Washington Center
00:07 39.5778 -78.7039 106° East 423 487 21,000 -600 Descending Washington Center
00:08 39.5439 -78.5519 106° East 416 479 21,000 -960 Level Washington Center
00:09 39.5119 -78.4133 107° East 409 471 19,100 -2,040 Descending Washington Center
00:10 39.4817 -78.2778 106° East 404 465 17,100 -2,040 Descending Washington Center
00:11 39.4514 -78.1422 106° East 398 458 15,100 -1,140 Descending Washington Center
00:12 39.4228 -78.0094 106° East 392 451 14,900 -1,380 Descending Washington Center
00:13 39.3919 -77.8794 107° East 384 442 12,400 -1,920 Descending Washington Center
00:14 39.3964 -77.7456 87° East 372 428 11,000 -900 Descending Washington Center
00:15 39.4133 -77.6169 80° East 365 420 10,600 -840 Descending Washington Center
00:16 39.4278 -77.4964 81° East 355 409 9,400 -1,080 Descending Washington Center
00:17 39.4442 -77.3839 79° East 336 387 8,500 -1,200 Descending Washington Center
00:18 39.4561 -77.2661 82° East 329 379 7,000 -1,320 Descending Washington Center
00:19 39.4667 -77.1500 83° East 309 356 5,800 -960 Descending Potomac TRACON
00:20 39.4667 -77.0333 90° East 300 345 5,000 -480 Descending Potomac TRACON
00:21 39.4833 -76.9333 78° East 297 342 5,000  Level Potomac TRACON
00:22 39.4500 -76.8333 113° Southeast 285 328 5,000  Level Potomac TRACON
00:23 39.4167 -76.7333 113° Southeast 290 334 5,000  Level Potomac TRACON
00:24 39.3833 -76.6500 117° Southeast 282 325 5,000  Level Potomac TRACON
00:25 39.3333 -76.5833 134° Southeast 267 307 5,000 -660 Level Potomac TRACON
00:26 39.2833 -76.5500 153° Southeast 238 274 3,800 -1,140 Descending Potomac TRACON
00:27 39.2167 -76.5167 159° South 207 238 2,900 -900 Descending Potomac TRACON
00:28 39.1667 -76.5000 166° South 179 206 2,000 -480 Descending Potomac TRACON
00:29 39.1167 -76.4833 165° South 186 214 2,000  Level Potomac TRACON
00:30 39.0833 -76.5000 201° Southwest 173 199 2,000  Level Potomac TRACON
00:31 39.0667 -76.5500 247° West 166 191 2,000 -180 Level Potomac TRACON
00:32 39.1000 -76.6000 311° West 172 198 1,700 -660 Descending Potomac TRACON
00:33 39.1500 -76.6500 322° Northwest 159 183 600 -900 Descending Potomac TRACON